createdAt,value
2023-02-03T00:00:31.485Z,100724.88
2023-02-03T00:01:07.322Z,100724.88
2023-02-03T00:01:43.298Z,100719.41
2023-02-03T00:02:19.159Z,100724.06
2023-02-03T00:02:55.618Z,100728.13
2023-02-03T00:03:31.816Z,100727.28
2023-02-03T00:04:08.639Z,100721.31
2023-02-03T00:04:44.800Z,100722.97
2023-02-03T00:05:20.372Z,100722.66
2023-02-03T00:05:56.284Z,100713.41
2023-02-03T00:06:32.436Z,100711.75
2023-02-03T00:07:08.715Z,100715.31
2023-02-03T00:07:45.012Z,100718.31
2023-02-03T00:08:21.494Z,100712.06
2023-02-03T00:08:58.302Z,100703.06
2023-02-03T00:09:34.047Z,100709.03
2023-02-03T00:10:10.537Z,100711.25
2023-02-03T00:10:46.295Z,100707.41
2023-02-03T00:11:22.153Z,100711.25
2023-02-03T00:11:58.652Z,100702.75
2023-02-03T00:12:34.947Z,100703.59
2023-02-03T00:13:11.138Z,100699.78
2023-02-03T00:13:47.300Z,100712.84
2023-02-03T00:14:24.000Z,100703.59
2023-02-03T00:15:00.583Z,100709.03
2023-02-03T00:15:38.441Z,100709.03
2023-02-03T00:16:14.556Z,100707.13
2023-02-03T00:16:50.179Z,100713.97
2023-02-03T00:17:26.614Z,100711.75
2023-02-03T00:18:02.995Z,100713.41
2023-02-03T00:18:38.841Z,100715.31
2023-02-03T00:19:17.166Z,100715.56
2023-02-03T00:19:52.734Z,100716.38
2023-02-03T00:20:29.411Z,100710.94
2023-02-03T00:21:05.531Z,100713.66
2023-02-03T00:21:41.654Z,100707.94
2023-02-03T00:22:17.266Z,100704.41
2023-02-03T00:22:53.999Z,100706.31
2023-02-03T00:23:30.171Z,100692.69
2023-02-03T00:24:06.354Z,100692.69
2023-02-03T00:24:42.858Z,100689.13
2023-02-03T00:25:19.415Z,100699.22
2023-02-03T00:25:55.532Z,100700.03
2023-02-03T00:26:31.527Z,100698.13
2023-02-03T00:27:07.843Z,100693.75
2023-02-03T00:27:43.909Z,100698.44
2023-02-03T00:28:20.079Z,100701.94
2023-02-03T00:28:56.239Z,100700.03
2023-02-03T00:29:32.424Z,100700.84
2023-02-03T00:30:08.889Z,100693.50
2023-02-03T00:30:44.906Z,100694.34
2023-02-03T00:31:20.879Z,100704.16
2023-02-03T00:31:57.794Z,100692.16
2023-02-03T00:32:34.068Z,100695.72
2023-02-03T00:33:10.062Z,100693.78
2023-02-03T00:33:46.494Z,100705.78
2023-02-03T00:34:23.077Z,100687.81
2023-02-03T00:34:59.153Z,100696.78
2023-02-03T00:35:35.599Z,100694.88
2023-02-03T00:36:11.891Z,100688.06
2023-02-03T00:36:47.599Z,100692.69
2023-02-03T00:37:23.533Z,100691.03
2023-02-03T00:37:59.807Z,100692.16
2023-02-03T00:38:36.505Z,100691.88
2023-02-03T00:39:12.755Z,100687.81
2023-02-03T00:39:49.135Z,100692.69
2023-02-03T00:40:25.756Z,100694.06
2023-02-03T00:41:01.896Z,100691.34
2023-02-03T00:41:38.361Z,100686.16
2023-02-03T00:42:15.376Z,100680.44
2023-02-03T00:42:51.973Z,100691.03
2023-02-03T00:43:28.867Z,100684.25
2023-02-03T00:44:05.341Z,100685.06
2023-02-03T00:44:42.814Z,100682.88
2023-02-03T00:45:19.338Z,100685.59
2023-02-03T00:45:55.073Z,100677.97
2023-02-03T00:46:30.472Z,100682.59
2023-02-03T00:47:06.701Z,100682.59
2023-02-03T00:47:43.594Z,100684.81
2023-02-03T00:48:19.736Z,100691.59
2023-02-03T00:48:55.949Z,100684.81
2023-02-03T00:49:32.529Z,100686.72
2023-02-03T00:50:08.504Z,100681.53
2023-02-03T00:50:45.040Z,100687.81
2023-02-03T00:51:21.042Z,100692.97
2023-02-03T00:51:58.754Z,100691.88
2023-02-03T00:52:35.484Z,100689.44
2023-02-03T00:53:12.222Z,100696.50
2023-02-03T00:53:49.645Z,100692.41
2023-02-03T00:54:26.784Z,100701.94
2023-02-03T00:55:03.390Z,100694.31
2023-02-03T00:55:40.728Z,100694.59
2023-02-03T00:56:16.723Z,100700.06
2023-02-03T00:56:52.359Z,100709.59
2023-02-03T00:57:29.163Z,100707.69
2023-02-03T00:58:05.672Z,100698.69
2023-02-03T00:58:42.051Z,100711.25
2023-02-03T00:59:18.543Z,100710.13
2023-02-03T00:59:55.289Z,100711.25
2023-02-03T01:00:31.578Z,100709.34
2023-02-03T01:01:07.161Z,100714.78
2023-02-03T01:01:43.095Z,100699.78
2023-02-03T01:02:19.787Z,100703.31
2023-02-03T01:02:56.185Z,100707.16
2023-02-03T01:03:32.086Z,100704.16
2023-02-03T01:04:08.265Z,100701.94
2023-02-03T01:04:44.990Z,100714.22
2023-02-03T01:05:20.590Z,100709.84
2023-02-03T01:05:56.867Z,100707.38
2023-02-03T01:06:32.638Z,100709.84
2023-02-03T01:07:09.205Z,100707.38
2023-02-03T01:07:45.536Z,100721.03
2023-02-03T01:08:21.971Z,100716.97
2023-02-03T01:08:58.610Z,100728.69
2023-02-03T01:09:34.913Z,100729.50
2023-02-03T01:10:11.410Z,100725.69
2023-02-03T01:10:47.863Z,100723.75
2023-02-03T01:11:24.079Z,100730.03
2023-02-03T01:11:59.193Z,100724.56
2023-02-03T01:12:35.688Z,100730.31
2023-02-03T01:13:11.983Z,100728.41
2023-02-03T01:13:48.621Z,100734.66
2023-02-03T01:14:25.540Z,100733.56
2023-02-03T01:15:03.723Z,100729.50
2023-02-03T01:15:39.865Z,100733.03
2023-02-03T01:16:16.552Z,100730.59
2023-02-03T01:16:53.074Z,100732.75
2023-02-03T01:17:28.743Z,100736.28
2023-02-03T01:18:05.166Z,100729.19
2023-02-03T01:18:41.483Z,100734.94
2023-02-03T01:19:18.058Z,100733.84
2023-02-03T01:19:54.499Z,100737.66
2023-02-03T01:20:31.323Z,100746.09
2023-02-03T01:21:08.060Z,100738.75
2023-02-03T01:21:44.415Z,100748.84
2023-02-03T01:22:20.028Z,100746.09
2023-02-03T01:22:55.991Z,100751.81
2023-02-03T01:23:31.846Z,100753.72
2023-02-03T01:24:08.040Z,100740.09
2023-02-03T01:24:44.281Z,100759.19
2023-02-03T01:25:20.830Z,100754.84
2023-02-03T01:25:56.351Z,100751.56
2023-02-03T01:26:32.069Z,100755.66
2023-02-03T01:27:07.703Z,100751.81
2023-02-03T01:27:44.427Z,100754.84
2023-02-03T01:28:20.954Z,100755.38
2023-02-03T01:28:57.697Z,100746.94
2023-02-03T01:29:34.008Z,100745.28
2023-02-03T01:30:10.412Z,100739.00
2023-02-03T01:30:46.864Z,100739.00
2023-02-03T01:31:23.333Z,100732.47
2023-02-03T01:31:59.297Z,100727.84
2023-02-03T01:32:36.151Z,100736.28
2023-02-03T01:33:12.440Z,100731.94
2023-02-03T01:33:48.551Z,100727.84
2023-02-03T01:34:25.458Z,100724.88
2023-02-03T01:35:02.000Z,100726.47
2023-02-03T01:35:38.138Z,100726.22
2023-02-03T01:36:14.856Z,100728.13
2023-02-03T01:36:50.563Z,100725.13
2023-02-03T01:37:26.341Z,100714.22
2023-02-03T01:38:03.187Z,100717.50
2023-02-03T01:38:39.375Z,100721.56
2023-02-03T01:39:15.363Z,100721.56
2023-02-03T01:39:51.478Z,100721.56
2023-02-03T01:40:28.255Z,100726.22
2023-02-03T01:41:05.379Z,100728.66
2023-02-03T01:41:43.429Z,100735.19
2023-02-03T01:42:20.061Z,100729.19
2023-02-03T01:42:55.868Z,100724.56
2023-02-03T01:43:32.312Z,100732.47
2023-02-03T01:44:08.641Z,100726.22
2023-02-03T01:44:44.669Z,100734.13
2023-02-03T01:45:20.956Z,100728.13
2023-02-03T01:45:57.787Z,100722.66
2023-02-03T01:46:33.636Z,100734.66
2023-02-03T01:47:10.202Z,100727.03
2023-02-03T01:47:46.258Z,100730.03
2023-02-03T01:48:21.945Z,100730.56
2023-02-03T01:48:58.181Z,100736.03
2023-02-03T01:49:34.526Z,100724.56
2023-02-03T01:50:11.098Z,100739.31
2023-02-03T01:50:47.196Z,100734.38
2023-02-03T01:51:23.447Z,100736.28
2023-02-03T01:52:00.146Z,100730.84
2023-02-03T01:52:36.132Z,100740.09
2023-02-03T01:53:12.089Z,100750.47
2023-02-03T01:53:47.943Z,100733.56
2023-02-03T01:54:24.089Z,100743.38
2023-02-03T01:54:59.889Z,100744.47
2023-02-03T01:55:36.615Z,100741.75
2023-02-03T01:56:13.270Z,100741.75
2023-02-03T01:56:49.010Z,100736.03
2023-02-03T01:57:25.348Z,100730.03
2023-02-03T01:58:01.843Z,100739.56
2023-02-03T01:58:38.276Z,100727.84
2023-02-03T01:59:13.875Z,100726.22
2023-02-03T01:59:49.697Z,100719.94
2023-02-03T02:00:26.710Z,100730.56
2023-02-03T02:01:03.409Z,100732.47
2023-02-03T02:01:39.935Z,100735.47
2023-02-03T02:02:16.558Z,100734.13
2023-02-03T02:02:53.132Z,100731.41
2023-02-03T02:03:29.523Z,100733.56
2023-02-03T02:04:05.946Z,100728.66
2023-02-03T02:04:41.945Z,100724.56
2023-02-03T02:05:18.834Z,100727.03
2023-02-03T02:05:55.280Z,100726.22
2023-02-03T02:06:32.217Z,100729.75
2023-02-03T02:07:08.167Z,100724.56
2023-02-03T02:07:44.989Z,100729.19
2023-02-03T02:08:21.878Z,100728.13
2023-02-03T02:08:58.444Z,100726.22
2023-02-03T02:09:34.393Z,100727.03
2023-02-03T02:10:10.290Z,100731.66
2023-02-03T02:10:46.559Z,100735.75
2023-02-03T02:11:22.803Z,100727.03
2023-02-03T02:11:59.237Z,100732.75
2023-02-03T02:12:35.543Z,100726.22
2023-02-03T02:13:11.111Z,100733.28
2023-02-03T02:13:47.716Z,100736.28
2023-02-03T02:14:23.465Z,100736.03
2023-02-03T02:14:59.424Z,100733.56
2023-02-03T02:15:36.935Z,100735.19
2023-02-03T02:16:13.239Z,100732.47
2023-02-03T02:16:49.831Z,100731.66
2023-02-03T02:17:25.861Z,100732.75
2023-02-03T02:18:02.710Z,100726.22
2023-02-03T02:18:39.515Z,100726.22
2023-02-03T02:19:15.825Z,100719.66
2023-02-03T02:19:52.278Z,100712.56
2023-02-03T02:20:28.299Z,100714.22
2023-02-03T02:21:04.213Z,100710.66
2023-02-03T02:21:40.264Z,100705.50
2023-02-03T02:22:16.860Z,100715.84
2023-02-03T02:22:53.857Z,100722.41
2023-02-03T02:23:30.151Z,100712.31
2023-02-03T02:24:06.582Z,100707.94
2023-02-03T02:24:43.960Z,100703.31
2023-02-03T02:25:20.725Z,100697.03
2023-02-03T02:25:56.677Z,100708.75
2023-02-03T02:26:32.525Z,100683.16
2023-02-03T02:27:08.307Z,100687.78
2023-02-03T02:27:44.752Z,100695.72
2023-02-03T02:28:21.262Z,100694.88
2023-02-03T02:28:58.057Z,100692.97
2023-02-03T02:29:34.368Z,100697.31
2023-02-03T02:30:11.022Z,100680.69
2023-02-03T02:30:47.779Z,100683.41
2023-02-03T02:31:23.685Z,100685.06
2023-02-03T02:31:59.317Z,100674.16
2023-02-03T02:32:35.734Z,100685.06
2023-02-03T02:33:11.856Z,100675.81
2023-02-03T02:33:48.322Z,100676.06
2023-02-03T02:34:24.262Z,100673.91
2023-02-03T02:35:00.988Z,100669.25
2023-02-03T02:35:35.997Z,100667.63
2023-02-03T02:36:11.850Z,100665.44
2023-02-03T02:36:48.366Z,100664.59
2023-02-03T02:37:25.052Z,100658.34
2023-02-03T02:38:01.742Z,100657.25
2023-02-03T02:38:37.883Z,100658.06
2023-02-03T02:39:14.599Z,100657.25
2023-02-03T02:39:51.566Z,100664.59
2023-02-03T02:40:28.836Z,100668.69
2023-02-03T02:41:05.381Z,100667.88
2023-02-03T02:41:41.404Z,100664.06
2023-02-03T02:42:18.342Z,100667.06
2023-02-03T02:42:55.066Z,100656.97
2023-02-03T02:43:31.528Z,100663.53
2023-02-03T02:44:07.585Z,100657.25
2023-02-03T02:44:44.443Z,100656.16
2023-02-03T02:45:20.864Z,100647.97
2023-02-03T02:45:56.886Z,100655.34
2023-02-03T02:46:33.319Z,100654.25
2023-02-03T02:47:08.825Z,100655.06
2023-02-03T02:47:45.732Z,100664.06
2023-02-03T02:48:22.196Z,100656.72
2023-02-03T02:48:58.398Z,100660.25
2023-02-03T02:49:34.711Z,100669.53
2023-02-03T02:50:11.070Z,100661.63
2023-02-03T02:50:47.333Z,100659.44
2023-02-03T02:51:23.192Z,100658.06
2023-02-03T02:51:58.972Z,100662.44
2023-02-03T02:52:35.045Z,100656.44
2023-02-03T02:53:11.507Z,100661.63
2023-02-03T02:53:47.744Z,100664.59
2023-02-03T02:54:24.250Z,100658.88
2023-02-03T02:55:01.511Z,100655.59
2023-02-03T02:55:38.429Z,100647.44
2023-02-03T02:56:15.740Z,100649.06
2023-02-03T02:56:52.067Z,100654.53
2023-02-03T02:57:27.994Z,100646.91
2023-02-03T02:58:03.256Z,100651.53
2023-02-03T02:58:40.119Z,100639.53
2023-02-03T02:59:16.328Z,100648.53
2023-02-03T02:59:52.593Z,100643.34
2023-02-03T03:00:29.397Z,100652.63
2023-02-03T03:01:05.921Z,100654.25
2023-02-03T03:01:43.030Z,100656.72
2023-02-03T03:02:19.304Z,100653.97
2023-02-03T03:02:55.411Z,100653.16
2023-02-03T03:03:31.747Z,100650.72
2023-02-03T03:04:08.969Z,100661.06
2023-02-03T03:04:44.963Z,100658.63
2023-02-03T03:05:21.055Z,100656.16
2023-02-03T03:05:57.031Z,100658.63
2023-02-03T03:06:33.187Z,100645.53
2023-02-03T03:07:09.882Z,100650.16
2023-02-03T03:07:46.154Z,100646.34
2023-02-03T03:08:22.463Z,100653.69
2023-02-03T03:08:57.882Z,100656.16
2023-02-03T03:09:34.303Z,100660.53
2023-02-03T03:10:10.489Z,100667.88
2023-02-03T03:10:47.021Z,100660.78
2023-02-03T03:11:23.761Z,100676.88
2023-02-03T03:11:59.573Z,100696.78
2023-02-03T03:12:36.203Z,100693.22
2023-02-03T03:13:12.589Z,100713.94
2023-02-03T03:13:48.618Z,100705.50
2023-02-03T03:14:24.119Z,100718.03
2023-02-03T03:15:00.432Z,100714.78
2023-02-03T03:15:38.880Z,100722.41
2023-02-03T03:16:15.837Z,100728.13
2023-02-03T03:16:52.128Z,100729.78
2023-02-03T03:17:28.115Z,100726.22
2023-02-03T03:18:04.534Z,100730.03
2023-02-03T03:18:40.920Z,100721.84
2023-02-03T03:19:16.911Z,100722.13
2023-02-03T03:19:52.653Z,100713.94
2023-02-03T03:20:28.694Z,100716.41
2023-02-03T03:21:04.901Z,100700.31
2023-02-03T03:21:41.200Z,100697.59
2023-02-03T03:22:17.422Z,100691.31
2023-02-03T03:22:54.472Z,100703.88
2023-02-03T03:23:30.835Z,100691.59
2023-02-03T03:24:07.259Z,100699.50
2023-02-03T03:24:43.279Z,100707.41
2023-02-03T03:25:18.651Z,100705.22
2023-02-03T03:25:55.087Z,100704.97
2023-02-03T03:26:32.035Z,100704.41
2023-02-03T03:27:08.613Z,100701.41
2023-02-03T03:27:45.541Z,100696.50
2023-02-03T03:28:21.488Z,100691.31
2023-02-03T03:28:57.525Z,100684.25
2023-02-03T03:29:33.779Z,100695.97
2023-02-03T03:30:10.163Z,100686.97
2023-02-03T03:30:45.904Z,100671.69
2023-02-03T03:31:22.627Z,100674.16
2023-02-03T03:31:58.804Z,100677.97
2023-02-03T03:32:35.133Z,100668.69
2023-02-03T03:33:11.767Z,100673.34
2023-02-03T03:33:47.980Z,100661.63
2023-02-03T03:34:24.645Z,100667.06
2023-02-03T03:35:00.820Z,100665.16
2023-02-03T03:35:37.108Z,100661.06
2023-02-03T03:36:13.053Z,100665.44
2023-02-03T03:36:49.856Z,100651.53
2023-02-03T03:37:26.187Z,100665.97
2023-02-03T03:38:02.697Z,100664.06
2023-02-03T03:38:38.924Z,100670.88
2023-02-03T03:39:15.630Z,100675.25
2023-02-03T03:39:51.275Z,100681.25
2023-02-03T03:40:27.983Z,100686.16
2023-02-03T03:41:04.231Z,100676.88
2023-02-03T03:41:40.080Z,100685.06
2023-02-03T03:42:16.052Z,100682.88
2023-02-03T03:42:51.620Z,100673.88
2023-02-03T03:43:28.552Z,100688.31
2023-02-03T03:44:04.745Z,100687.50
2023-02-03T03:44:40.761Z,100683.97
2023-02-03T03:45:16.777Z,100681.25
2023-02-03T03:45:53.266Z,100685.06
2023-02-03T03:46:29.700Z,100689.41
2023-02-03T03:47:06.000Z,100688.31
2023-02-03T03:47:42.076Z,100686.69
2023-02-03T03:48:18.458Z,100673.91
2023-02-03T03:48:54.927Z,100671.44
2023-02-03T03:49:31.421Z,100673.06
2023-02-03T03:50:08.109Z,100673.63
2023-02-03T03:50:43.851Z,100673.88
2023-02-03T03:51:19.820Z,100673.06
2023-02-03T03:51:55.959Z,100665.69
2023-02-03T03:52:32.545Z,100664.88
2023-02-03T03:53:08.511Z,100666.53
2023-02-03T03:53:44.638Z,100667.34
2023-02-03T03:54:20.902Z,100666.53
2023-02-03T03:54:57.123Z,100666.25
2023-02-03T03:55:33.852Z,100663.25
2023-02-03T03:56:09.972Z,100666.53
2023-02-03T03:56:46.636Z,100670.34
2023-02-03T03:57:22.493Z,100664.88
2023-02-03T03:57:58.836Z,100665.69
2023-02-03T03:58:34.631Z,100669.53
2023-02-03T03:59:11.317Z,100674.16
2023-02-03T03:59:47.637Z,100676.06
2023-02-03T04:00:24.520Z,100666.53
2023-02-03T04:01:00.651Z,100670.06
2023-02-03T04:01:37.458Z,100670.34
2023-02-03T04:02:14.058Z,100666.53
2023-02-03T04:02:50.185Z,100677.97
2023-02-03T04:03:25.912Z,100676.06
2023-02-03T04:04:01.853Z,100684.25
2023-02-03T04:04:39.880Z,100687.50
2023-02-03T04:05:17.043Z,100683.16
2023-02-03T04:05:53.653Z,100688.31
2023-02-03T04:06:30.505Z,100692.16
2023-02-03T04:07:06.980Z,100695.97
2023-02-03T04:07:43.237Z,100688.31
2023-02-03T04:08:18.990Z,100694.06
2023-02-03T04:08:55.040Z,100694.88
2023-02-03T04:09:31.234Z,100692.97
2023-02-03T04:10:07.651Z,100685.59
2023-02-03T04:10:44.114Z,100690.78
2023-02-03T04:11:20.563Z,100676.34
2023-02-03T04:11:57.185Z,100673.88
2023-02-03T04:12:33.029Z,100680.69
2023-02-03T04:13:09.693Z,100677.44
2023-02-03T04:13:45.320Z,100667.59
2023-02-03T04:14:22.020Z,100668.97
2023-02-03T04:14:58.551Z,100671.44
2023-02-03T04:15:37.408Z,100666.25
2023-02-03T04:16:13.566Z,100667.06
2023-02-03T04:16:49.842Z,100664.88
2023-02-03T04:17:25.934Z,100667.88
2023-02-03T04:18:01.875Z,100663.78
2023-02-03T04:18:38.039Z,100664.88
2023-02-03T04:19:14.374Z,100661.34
2023-02-03T04:19:50.301Z,100666.25
2023-02-03T04:20:28.200Z,100662.44
2023-02-03T04:21:05.416Z,100653.97
2023-02-03T04:21:42.356Z,100659.44
2023-02-03T04:22:18.120Z,100658.88
2023-02-03T04:22:53.771Z,100654.53
2023-02-03T04:23:29.756Z,100659.44
2023-02-03T04:24:06.444Z,100653.69
2023-02-03T04:24:42.947Z,100657.78
2023-02-03T04:25:18.753Z,100659.44
2023-02-03T04:25:55.056Z,100658.34
2023-02-03T04:26:31.178Z,100659.97
2023-02-03T04:27:07.088Z,100659.44
2023-02-03T04:27:43.263Z,100661.06
2023-02-03T04:28:19.098Z,100658.34
2023-02-03T04:28:55.573Z,100657.78
2023-02-03T04:29:32.319Z,100656.44
2023-02-03T04:30:09.032Z,100661.63
2023-02-03T04:30:45.545Z,100657.25
2023-02-03T04:31:21.889Z,100657.25
2023-02-03T04:31:58.316Z,100661.06
2023-02-03T04:32:33.902Z,100671.72
2023-02-03T04:33:09.349Z,100671.72
2023-02-03T04:33:46.180Z,100665.16
2023-02-03T04:34:22.603Z,100662.72
2023-02-03T04:34:58.224Z,100655.34
2023-02-03T04:35:34.343Z,100658.91
2023-02-03T04:36:11.006Z,100675.25
2023-02-03T04:36:48.332Z,100666.53
2023-02-03T04:37:25.293Z,100668.16
2023-02-03T04:38:01.226Z,100664.63
2023-02-03T04:38:36.655Z,100675.53
2023-02-03T04:39:13.421Z,100670.06
2023-02-03T04:39:50.020Z,100680.41
2023-02-03T04:40:25.804Z,100676.59
2023-02-03T04:41:02.437Z,100675.78
2023-02-03T04:41:38.999Z,100674.69
2023-02-03T04:42:15.853Z,100672.78
2023-02-03T04:42:51.939Z,100661.06
2023-02-03T04:43:28.244Z,100653.97
2023-02-03T04:44:04.210Z,100674.44
2023-02-03T04:44:41.034Z,100665.69
2023-02-03T04:45:17.150Z,100662.69
2023-02-03T04:45:54.012Z,100661.63
2023-02-03T04:46:30.024Z,100668.97
2023-02-03T04:47:06.590Z,100669.78
2023-02-03T04:47:42.815Z,100667.34
2023-02-03T04:48:19.223Z,100675.78
2023-02-03T04:48:54.816Z,100673.63
2023-02-03T04:49:31.072Z,100671.44
2023-02-03T04:50:07.616Z,100666.78
2023-02-03T04:50:43.476Z,100672.25
2023-02-03T04:51:20.081Z,100666.53
2023-02-03T04:51:56.320Z,100663.25
2023-02-03T04:52:33.315Z,100663.78
2023-02-03T04:53:09.818Z,100650.16
2023-02-03T04:53:46.007Z,100652.91
2023-02-03T04:54:21.767Z,100652.06
2023-02-03T04:54:57.801Z,100640.09
2023-02-03T04:55:33.666Z,100639.25
2023-02-03T04:56:10.587Z,100633.53
2023-02-03T04:56:46.989Z,100635.44
2023-02-03T04:57:23.725Z,100629.19
2023-02-03T04:58:00.052Z,100632.44
2023-02-03T04:58:36.298Z,100632.72
2023-02-03T04:59:12.729Z,100632.44
2023-02-03T04:59:48.168Z,100628.09
2023-02-03T05:00:24.680Z,100632.72
2023-02-03T05:01:01.520Z,100627.28
2023-02-03T05:01:38.140Z,100618.00
2023-02-03T05:02:14.603Z,100620.19
2023-02-03T05:02:51.222Z,100610.63
2023-02-03T05:03:26.802Z,100614.19
2023-02-03T05:04:02.553Z,100616.38
2023-02-03T05:04:39.045Z,100604.66
2023-02-03T05:05:15.316Z,100622.91
2023-02-03T05:05:51.811Z,100621.28
2023-02-03T05:06:27.705Z,100619.63
2023-02-03T05:07:04.516Z,100637.63
2023-02-03T05:07:40.738Z,100636.00
2023-02-03T05:08:17.163Z,100633.00
2023-02-03T05:08:53.006Z,100636.53
2023-02-03T05:09:28.475Z,100631.91
2023-02-03T05:10:04.838Z,100634.63
2023-02-03T05:10:41.332Z,100642.00
2023-02-03T05:11:17.787Z,100633.00
2023-02-03T05:11:54.253Z,100644.72
2023-02-03T05:12:30.541Z,100640.38
2023-02-03T05:13:07.696Z,100636.28
2023-02-03T05:13:43.308Z,100643.63
2023-02-03T05:14:19.295Z,100636.53
2023-02-03T05:14:55.007Z,100643.91
2023-02-03T05:15:31.728Z,100636.53
2023-02-03T05:16:08.210Z,100643.91
2023-02-03T05:16:44.431Z,100635.72
2023-02-03T05:17:20.870Z,100634.34
2023-02-03T05:17:57.129Z,100632.19
2023-02-03T05:18:33.316Z,100639.25
2023-02-03T05:19:10.015Z,100628.09
2023-02-03T05:19:45.967Z,100623.72
2023-02-03T05:20:21.232Z,100622.91
2023-02-03T05:20:57.591Z,100625.63
2023-02-03T05:21:33.463Z,100623.72
2023-02-03T05:22:09.813Z,100619.09
2023-02-03T05:22:45.847Z,100612.56
2023-02-03T05:23:22.515Z,100609.00
2023-02-03T05:23:59.024Z,100615.28
2023-02-03T05:24:35.650Z,100611.19
2023-02-03T05:25:11.240Z,100605.47
2023-02-03T05:25:47.158Z,100606.56
2023-02-03T05:26:23.369Z,100621.00
2023-02-03T05:26:59.757Z,100612.00
2023-02-03T05:27:36.122Z,100617.47
2023-02-03T05:28:12.484Z,100622.91
2023-02-03T05:28:50.201Z,100633.53
2023-02-03T05:29:25.891Z,100624.53
2023-02-03T05:30:03.727Z,100624.28
2023-02-03T05:30:39.282Z,100625.38
2023-02-03T05:31:15.390Z,100630.00
2023-02-03T05:31:51.865Z,100623.72
2023-02-03T05:32:28.569Z,100629.19
2023-02-03T05:33:04.495Z,100621.00
2023-02-03T05:33:41.326Z,100626.44
2023-02-03T05:34:17.075Z,100631.63
2023-02-03T05:34:53.381Z,100626.44
2023-02-03T05:35:29.591Z,100628.34
2023-02-03T05:36:05.485Z,100634.63
2023-02-03T05:36:41.370Z,100628.34
2023-02-03T05:37:17.245Z,100626.44
2023-02-03T05:37:54.050Z,100625.91
2023-02-03T05:38:30.029Z,100621.53
2023-02-03T05:39:06.463Z,100613.09
2023-02-03T05:39:43.269Z,100610.63
2023-02-03T05:40:19.417Z,100615.28
2023-02-03T05:40:56.300Z,100615.81
2023-02-03T05:41:32.377Z,100618.81
2023-02-03T05:42:07.809Z,100623.44
2023-02-03T05:42:44.365Z,100616.63
2023-02-03T05:43:20.143Z,100611.19
2023-02-03T05:43:56.727Z,100604.91
2023-02-03T05:44:32.489Z,100606.28
2023-02-03T05:45:09.148Z,100603.81
2023-02-03T05:45:45.339Z,100609.00
2023-02-03T05:46:21.795Z,100612.28
2023-02-03T05:46:58.030Z,100600.84
2023-02-03T05:47:33.824Z,100601.91
2023-02-03T05:48:10.058Z,100606.84
2023-02-03T05:48:45.861Z,100612.56
2023-02-03T05:49:22.669Z,100612.81
2023-02-03T05:49:59.229Z,100619.09
2023-02-03T05:50:36.855Z,100615.81
2023-02-03T05:51:13.916Z,100628.34
2023-02-03T05:51:50.500Z,100626.72
2023-02-03T05:52:26.708Z,100624.00
2023-02-03T05:53:02.493Z,100632.44
2023-02-03T05:53:38.748Z,100615.81
2023-02-03T05:54:15.535Z,100619.63
2023-02-03T05:54:51.836Z,100619.38
2023-02-03T05:55:27.932Z,100625.91
2023-02-03T05:56:04.375Z,100620.44
2023-02-03T05:56:41.315Z,100622.91
2023-02-03T05:57:17.474Z,100619.91
2023-02-03T05:57:53.540Z,100614.19
2023-02-03T05:58:29.171Z,100625.38
2023-02-03T05:59:05.010Z,100619.91
2023-02-03T05:59:41.935Z,100619.91
2023-02-03T06:00:18.626Z,100618.00
2023-02-03T06:00:54.878Z,100626.19
2023-02-03T06:01:30.965Z,100616.91
2023-02-03T06:02:07.476Z,100617.47
2023-02-03T06:02:43.627Z,100618.28
2023-02-03T06:03:19.596Z,100622.63
2023-02-03T06:03:55.593Z,100612.56
2023-02-03T06:04:32.364Z,100619.66
2023-02-03T06:05:09.138Z,100616.63
2023-02-03T06:05:45.050Z,100610.91
2023-02-03T06:06:21.316Z,100618.28
2023-02-03T06:06:57.418Z,100620.19
2023-02-03T06:07:34.206Z,100619.09
2023-02-03T06:08:10.421Z,100619.09
2023-02-03T06:08:45.725Z,100628.63
2023-02-03T06:09:21.947Z,100613.66
2023-02-03T06:09:58.637Z,100612.00
2023-02-03T06:10:34.835Z,100621.00
2023-02-03T06:11:11.261Z,100606.56
2023-02-03T06:11:47.635Z,100609.81
2023-02-03T06:12:24.454Z,100604.38
2023-02-03T06:13:00.986Z,100624.81
2023-02-03T06:13:37.019Z,100610.09
2023-02-03T06:14:12.494Z,100607.09
2023-02-03T06:14:48.804Z,100618.00
2023-02-03T06:15:25.391Z,100614.19
2023-02-03T06:16:01.766Z,100622.09
2023-02-03T06:16:38.932Z,100622.38
2023-02-03T06:17:15.430Z,100614.47
2023-02-03T06:17:52.115Z,100619.66
2023-02-03T06:18:28.003Z,100614.47
2023-02-03T06:19:03.191Z,100619.91
2023-02-03T06:19:39.429Z,100617.19
2023-02-03T06:20:16.175Z,100608.75
2023-02-03T06:20:52.345Z,100624.53
2023-02-03T06:21:28.749Z,100621.81
2023-02-03T06:22:04.677Z,100622.09
2023-02-03T06:22:41.405Z,100621.81
2023-02-03T06:23:17.791Z,100623.72
2023-02-03T06:23:54.194Z,100625.38
2023-02-03T06:24:29.904Z,100616.91
2023-02-03T06:25:06.479Z,100614.75
2023-02-03T06:25:42.907Z,100616.91
2023-02-03T06:26:19.390Z,100609.00
2023-02-03T06:26:55.493Z,100612.00
2023-02-03T06:27:31.338Z,100616.38
2023-02-03T06:28:07.609Z,100608.19
2023-02-03T06:28:43.625Z,100612.00
2023-02-03T06:29:20.037Z,100616.63
2023-02-03T06:29:54.940Z,100608.75
2023-02-03T06:30:30.567Z,100607.09
2023-02-03T06:31:05.874Z,100616.38
2023-02-03T06:31:42.965Z,100615.81
2023-02-03T06:32:19.705Z,100608.19
2023-02-03T06:32:55.762Z,100624.28
2023-02-03T06:33:32.255Z,100627.28
2023-02-03T06:34:07.823Z,100625.91
2023-02-03T06:34:43.554Z,100627.28
2023-02-03T06:35:19.442Z,100625.09
2023-02-03T06:35:55.722Z,100613.38
2023-02-03T06:36:31.609Z,100618.00
2023-02-03T06:37:07.830Z,100596.75
2023-02-03T06:37:44.300Z,100610.38
2023-02-03T06:38:21.392Z,100627.81
2023-02-03T06:38:57.403Z,100625.09
2023-02-03T06:39:34.164Z,100627.00
2023-02-03T06:40:10.591Z,100621.56
2023-02-03T06:40:46.141Z,100628.63
2023-02-03T06:41:22.328Z,100632.72
2023-02-03T06:41:58.728Z,100635.19
2023-02-03T06:42:34.774Z,100637.91
2023-02-03T06:43:11.010Z,100630.28
2023-02-03T06:43:47.204Z,100625.91
2023-02-03T06:44:23.650Z,100624.53
2023-02-03T06:44:59.890Z,100631.63
2023-02-03T06:45:39.665Z,100631.34
2023-02-03T06:46:15.179Z,100619.91
2023-02-03T06:46:51.602Z,100631.91
2023-02-03T06:47:27.547Z,100628.66
2023-02-03T06:48:03.381Z,100627.81
2023-02-03T06:48:39.869Z,100629.72
2023-02-03T06:49:15.944Z,100619.38
2023-02-03T06:49:52.416Z,100623.19
2023-02-03T06:50:28.525Z,100624.00
2023-02-03T06:51:04.118Z,100631.63
2023-02-03T06:51:39.418Z,100623.44
2023-02-03T06:52:15.852Z,100633.53
2023-02-03T06:52:52.140Z,100614.47
2023-02-03T06:53:28.812Z,100626.72
2023-02-03T06:54:04.977Z,100621.00
2023-02-03T06:54:41.753Z,100620.19